Time;durP1;ratioP1;P1;durP2;ratioP2;P2;SDS_P1;SDS_P2;PMS_P1;PMS_P2;Temp;Humidity;BMP_temperature;BMP_pressure;BME280_temperature;BME280_humidity;BME280_pressure;Samples;Min_cycle;Max_cycle;Signal;HPM_P1;HPM_P2
2020/12/26 00:00:29;;;;;;;86.85;45.78;;;;;;;;;;5032924;28;20116;-70
2020/12/26 00:02:54;;;;;;;99.85;50.08;;;;;;;;;;5025165;28;20528;-69
2020/12/26 00:05:19;;;;;;;86.38;45.53;;;;;;;;;;5042257;28;20071;-69
2020/12/26 00:07:44;;;;;;;86.00;44.58;;;;;;;;;;5038462;28;20036;-69
2020/12/26 00:10:10;;;;;;;78.55;42.35;;;;;;;;;;5042405;28;20037;-71
2020/12/26 00:12:35;;;;;;;88.38;43.78;;;;;;;;;;5041906;28;20029;-69
2020/12/26 00:15:01;;;;;;;96.18;47.20;;;;;;;;;;5044135;28;20029;-69
2020/12/26 00:17:26;;;;;;;70.82;38.40;;;;;;;;;;5042603;28;20021;-69
2020/12/26 00:19:52;;;;;;;70.93;38.60;;;;;;;;;;5042693;28;20024;-69
2020/12/26 00:22:17;;;;;;;70.50;35.35;;;;;;;;;;5043815;28;20030;-69
2020/12/26 00:24:42;;;;;;;59.92;32.45;;;;;;;;;;5041962;28;20010;-69
2020/12/26 00:27:07;;;;;;;61.60;33.97;;;;;;;;;;5043582;28;20465;-69
2020/12/26 00:29:33;;;;;;;65.40;34.15;;;;;;;;;;5041674;28;20025;-69
2020/12/26 00:31:58;;;;;;;74.28;34.40;;;;;;;;;;5041683;28;20176;-70
2020/12/26 00:34:23;;;;;;;64.13;30.23;;;;;;;;;;5030487;28;20112;-69
2020/12/26 00:36:49;;;;;;;50.13;26.85;;;;;;;;;;5032717;28;20039;-69
2020/12/26 00:39:14;;;;;;;60.67;27.83;;;;;;;;;;5031662;28;20520;-69
2020/12/26 00:41:39;;;;;;;55.03;27.98;;;;;;;;;;5033007;28;20029;-69
2020/12/26 00:44:04;;;;;;;56.10;27.85;;;;;;;;;;5032751;28;20037;-70
2020/12/26 00:46:30;;;;;;;53.28;27.27;;;;;;;;;;5032454;28;20013;-70
2020/12/26 00:48:55;;;;;;;60.72;27.00;;;;;;;;;;5032626;28;20456;-69
2020/12/26 00:51:20;;;;;;;61.10;30.20;;;;;;;;;;5032269;28;20088;-71
2020/12/26 00:53:46;;;;;;;58.35;28.95;;;;;;;;;;5032514;28;20083;-69
2020/12/26 00:56:11;;;;;;;63.38;28.35;;;;;;;;;;5033057;28;20116;-69
2020/12/26 00:58:36;;;;;;;59.38;28.63;;;;;;;;;;5032599;28;20037;-69
2020/12/26 01:01:02;;;;;;;54.90;28.00;;;;;;;;;;5032383;28;20355;-69
2020/12/26 01:03:27;;;;;;;53.63;27.77;;;;;;;;;;5032778;28;20033;-69
2020/12/26 01:05:53;;;;;;;49.38;26.30;;;;;;;;;;5033041;28;20048;-69
2020/12/26 01:08:18;;;;;;;45.70;24.75;;;;;;;;;;5032856;28;20096;-69
2020/12/26 01:10:43;;;;;;;39.50;22.60;;;;;;;;;;5032472;28;20049;-70
2020/12/26 01:13:08;;;;;;;45.35;24.33;;;;;;;;;;5033018;28;20488;-69
2020/12/26 01:15:34;;;;;;;44.58;22.98;;;;;;;;;;5032995;28;20016;-69
2020/12/26 01:17:59;;;;;;;40.30;20.67;;;;;;;;;;5032973;28;20045;-72
2020/12/26 01:20:24;;;;;;;41.80;22.08;;;;;;;;;;5032704;28;20116;-69
2020/12/26 01:22:49;;;;;;;44.13;19.75;;;;;;;;;;5032852;28;20018;-69
2020/12/26 01:25:15;;;;;;;36.38;18.30;;;;;;;;;;5032946;28;20033;-70
2020/12/26 01:27:40;;;;;;;32.20;18.58;;;;;;;;;;5032544;28;20524;-70
2020/12/26 01:30:05;;;;;;;32.38;17.05;;;;;;;;;;5032594;28;20474;-69
2020/12/26 01:32:31;;;;;;;28.25;17.13;;;;;;;;;;5032848;28;20470;-70
2020/12/26 01:34:57;;;;;;;26.25;14.35;;;;;;;;;;5032782;28;20065;-70
2020/12/26 01:37:23;;;;;;;30.17;15.15;;;;;;;;;;5032580;28;20018;-71
2020/12/26 01:39:48;;;;;;;25.17;13.40;;;;;;;;;;5032507;28;20116;-69
2020/12/26 01:42:13;;;;;;;25.92;13.32;;;;;;;;;;5046944;28;20520;-70
2020/12/26 01:44:38;;;;;;;24.60;13.07;;;;;;;;;;5052636;28;20017;-73
2020/12/26 01:47:04;;;;;;;26.05;13.88;;;;;;;;;;5052645;28;20025;-69
2020/12/26 01:49:29;;;;;;;23.70;12.10;;;;;;;;;;5052151;28;20485;-71
2020/12/26 01:51:55;;;;;;;24.70;11.73;;;;;;;;;;5054779;28;20021;-70
2020/12/26 01:54:20;;;;;;;25.55;11.30;;;;;;;;;;5056219;28;20497;-69
2020/12/26 01:56:47;;;;;;;23.73;10.85;;;;;;;;;;5056317;28;20028;-69
2020/12/26 01:59:12;;;;;;;18.10;9.70;;;;;;;;;;5056652;28;20071;-70
2020/12/26 02:01:38;;;;;;;21.83;9.63;;;;;;;;;;5055996;28;20037;-69
2020/12/26 02:04:04;;;;;;;19.92;9.85;;;;;;;;;;5056149;28;20472;-70
2020/12/26 02:06:32;;;;;;;19.77;9.20;;;;;;;;;;5056192;28;20090;-70
2020/12/26 02:08:59;;;;;;;20.27;9.43;;;;;;;;;;5056071;28;20491;-70
2020/12/26 02:11:24;;;;;;;18.02;8.73;;;;;;;;;;5055422;28;20555;-70
2020/12/26 02:13:49;;;;;;;21.60;9.25;;;;;;;;;;5056054;28;20013;-70
2020/12/26 02:16:17;;;;;;;17.70;9.63;;;;;;;;;;5055769;28;20493;-70
2020/12/26 02:18:42;;;;;;;17.73;8.18;;;;;;;;;;5055919;28;20040;-70
2020/12/26 02:21:07;;;;;;;17.33;8.75;;;;;;;;;;5056236;28;20099;-70
2020/12/26 02:23:35;;;;;;;18.10;8.75;;;;;;;;;;5055507;28;20035;-70
2020/12/26 02:26:00;;;;;;;14.90;6.97;;;;;;;;;;5055853;28;20040;-70
2020/12/26 02:28:25;;;;;;;14.18;7.32;;;;;;;;;;5055887;28;20013;-69
2020/12/26 02:30:51;;;;;;;16.92;7.10;;;;;;;;;;5055275;28;20474;-70
2020/12/26 02:33:17;;;;;;;18.27;5.70;;;;;;;;;;5055382;28;20057;-69
2020/12/26 02:35:45;;;;;;;14.18;5.22;;;;;;;;;;5055598;28;20045;-71
2020/12/26 02:38:11;;;;;;;15.18;5.90;;;;;;;;;;5055620;28;20037;-71
2020/12/26 02:40:36;;;;;;;20.42;5.78;;;;;;;;;;5054352;28;20029;-69
2020/12/26 02:43:01;;;;;;;14.20;6.00;;;;;;;;;;5035356;28;20168;-69
2020/12/26 02:45:26;;;;;;;13.07;5.80;;;;;;;;;;5035529;28;20033;-70
2020/12/26 02:47:52;;;;;;;14.75;6.10;;;;;;;;;;5035401;28;20040;-70
2020/12/26 02:50:17;;;;;;;17.10;6.20;;;;;;;;;;5035473;28;20540;-69
2020/12/26 02:52:42;;;;;;;10.05;5.10;;;;;;;;;;5035589;28;20040;-70
2020/12/26 02:55:08;;;;;;;17.02;5.93;;;;;;;;;;5035141;28;20049;-70
2020/12/26 02:57:33;;;;;;;11.88;5.57;;;;;;;;;;5035062;28;20025;-70
2020/12/26 02:59:58;;;;;;;13.57;5.25;;;;;;;;;;5035181;28;20037;-70
2020/12/26 03:02:23;;;;;;;15.40;5.78;;;;;;;;;;5034334;28;20367;-69
2020/12/26 03:04:49;;;;;;;12.60;5.22;;;;;;;;;;5034539;28;20049;-69
2020/12/26 03:07:14;;;;;;;13.27;5.07;;;;;;;;;;5034628;28;20033;-70
2020/12/26 03:09:39;;;;;;;13.00;5.15;;;;;;;;;;5037224;28;20037;-70
2020/12/26 03:12:04;;;;;;;12.07;5.45;;;;;;;;;;5035049;28;20454;-70
2020/12/26 03:14:30;;;;;;;11.98;4.95;;;;;;;;;;5034438;28;20033;-70
2020/12/26 03:16:55;;;;;;;12.57;5.00;;;;;;;;;;5034951;28;20044;-70
2020/12/26 03:19:20;;;;;;;14.82;4.60;;;;;;;;;;5035068;28;20017;-69
2020/12/26 03:21:45;;;;;;;14.68;4.60;;;;;;;;;;5034820;28;20082;-70
2020/12/26 03:24:11;;;;;;;9.40;4.18;;;;;;;;;;5034508;28;20408;-70
2020/12/26 03:26:36;;;;;;;13.32;3.78;;;;;;;;;;5034823;28;20024;-70
2020/12/26 03:29:01;;;;;;;11.90;4.68;;;;;;;;;;5034810;28;20060;-70
2020/12/26 03:31:26;;;;;;;8.77;2.72;;;;;;;;;;5034566;28;20037;-70
2020/12/26 03:33:52;;;;;;;15.40;2.60;;;;;;;;;;5034173;28;20413;-70
2020/12/26 03:36:17;;;;;;;8.75;2.75;;;;;;;;;;5034608;28;20377;-69
2020/12/26 03:38:42;;;;;;;5.80;1.73;;;;;;;;;;5034166;28;20044;-70
2020/12/26 03:41:08;;;;;;;8.30;2.05;;;;;;;;;;5039981;28;20529;-70
2020/12/26 03:43:33;;;;;;;8.02;2.63;;;;;;;;;;5054347;28;20033;-70
2020/12/26 03:45:58;;;;;;;5.35;2.00;;;;;;;;;;5054062;28;20118;-70
2020/12/26 03:48:23;;;;;;;8.07;3.38;;;;;;;;;;5054276;28;20092;-70
2020/12/26 03:50:49;;;;;;;10.73;2.70;;;;;;;;;;5053798;28;20448;-69
2020/12/26 03:53:14;;;;;;;8.27;2.85;;;;;;;;;;5054294;28;20099;-71
2020/12/26 03:55:39;;;;;;;9.23;2.63;;;;;;;;;;5053801;28;20381;-70
2020/12/26 03:58:05;;;;;;;9.15;2.05;;;;;;;;;;5054185;28;20029;-70
2020/12/26 04:00:30;;;;;;;8.00;2.38;;;;;;;;;;5053941;28;20047;-70
2020/12/26 04:02:55;;;;;;;5.00;1.60;;;;;;;;;;5053708;28;20532;-70
2020/12/26 04:05:21;;;;;;;3.42;1.30;;;;;;;;;;5053698;28;20025;-70
2020/12/26 04:07:46;;;;;;;7.57;1.60;;;;;;;;;;5053567;28;20108;-70
2020/12/26 04:10:12;;;;;;;6.78;1.40;;;;;;;;;;5054136;28;20041;-70
2020/12/26 04:12:37;;;;;;;8.13;1.60;;;;;;;;;;5053543;28;20103;-70
2020/12/26 04:15:02;;;;;;;8.43;1.83;;;;;;;;;;5053352;28;20401;-70
2020/12/26 04:17:28;;;;;;;11.98;2.30;;;;;;;;;;5053472;28;20020;-70
2020/12/26 04:19:53;;;;;;;9.60;2.03;;;;;;;;;;5053655;28;20025;-70
2020/12/26 04:22:18;;;;;;;10.88;2.35;;;;;;;;;;5053394;28;20473;-70
2020/12/26 04:24:43;;;;;;;8.35;2.20;;;;;;;;;;5039539;28;20013;-71
2020/12/26 04:27:09;;;;;;;8.77;2.33;;;;;;;;;;5033445;28;20487;-70
2020/12/26 04:29:34;;;;;;;3.78;1.77;;;;;;;;;;5033395;28;20116;-70
2020/12/26 04:32:00;;;;;;;5.78;2.15;;;;;;;;;;5033380;28;20075;-70
2020/12/26 04:34:25;;;;;;;8.27;2.00;;;;;;;;;;5033316;28;20057;-69
2020/12/26 04:36:50;;;;;;;8.85;2.33;;;;;;;;;;5032827;28;20037;-70
2020/12/26 04:39:15;;;;;;;9.07;2.25;;;;;;;;;;5033497;28;20064;-70
2020/12/26 04:41:41;;;;;;;9.80;2.55;;;;;;;;;;5043403;28;20047;-70
2020/12/26 04:44:07;;;;;;;7.57;2.33;;;;;;;;;;5053428;28;20473;-69
2020/12/26 04:46:34;;;;;;;12.00;2.55;;;;;;;;;;5052876;28;20017;-73
2020/12/26 04:48:59;;;;;;;11.02;2.85;;;;;;;;;;5053260;28;20033;-70
2020/12/26 04:51:25;;;;;;;5.45;1.83;;;;;;;;;;5052804;28;20045;-70
2020/12/26 04:53:52;;;;;;;6.93;2.15;;;;;;;;;;5044972;28;20140;-70
2020/12/26 04:56:19;;;;;;;11.00;2.17;;;;;;;;;;5032999;28;20037;-69
2020/12/26 04:58:47;;;;;;;7.88;2.13;;;;;;;;;;5033125;28;20077;-72
2020/12/26 05:01:13;;;;;;;10.48;2.67;;;;;;;;;;5032175;28;20103;-70
2020/12/26 05:03:39;;;;;;;5.43;3.03;;;;;;;;;;5033173;28;20073;-70
2020/12/26 05:06:05;;;;;;;6.82;2.65;;;;;;;;;;5032837;28;20037;-72
2020/12/26 05:08:30;;;;;;;8.05;2.78;;;;;;;;;;5033098;28;20052;-71
2020/12/26 05:10:56;;;;;;;10.88;2.92;;;;;;;;;;5032914;28;20483;-70
2020/12/26 05:13:22;;;;;;;8.30;3.22;;;;;;;;;;5032826;28;20037;-70
2020/12/26 05:15:47;;;;;;;7.47;2.88;;;;;;;;;;5032956;28;20029;-70
2020/12/26 05:18:12;;;;;;;12.13;4.05;;;;;;;;;;5032993;28;20030;-70
2020/12/26 05:20:37;;;;;;;9.52;3.50;;;;;;;;;;5032961;28;20045;-69
2020/12/26 05:23:07;;;;;;;11.32;3.58;;;;;;;;;;5032877;28;20409;-70
2020/12/26 05:25:32;;;;;;;12.40;5.05;;;;;;;;;;5032384;28;20029;-70
2020/12/26 05:28:14;;;;;;;12.40;3.42;;;;;;;;;;5036953;28;20036;-70
2020/12/26 05:30:40;;;;;;;11.57;4.10;;;;;;;;;;5036834;28;20128;-70
2020/12/26 05:33:06;;;;;;;10.00;3.72;;;;;;;;;;5036942;28;20128;-70
2020/12/26 05:35:39;;;;;;;11.70;3.97;;;;;;;;;;5036574;28;20109;-70
2020/12/26 05:38:11;;;;;;;12.45;3.80;;;;;;;;;;5036774;28;20029;-70
2020/12/26 05:40:43;;;;;;;17.73;3.63;;;;;;;;;;5037313;28;20060;-70
2020/12/26 05:43:10;;;;;;;7.93;3.78;;;;;;;;;;5056693;28;20068;-70
2020/12/26 05:45:38;;;;;;;7.93;3.90;;;;;;;;;;5056456;28;20041;-69
2020/12/26 05:48:14;;;;;;;10.27;3.97;;;;;;;;;;5056215;28;20488;-70
2020/12/26 05:50:40;;;;;;;10.57;3.83;;;;;;;;;;5056138;28;20036;-70
2020/12/26 05:53:11;;;;;;;7.25;3.40;;;;;;;;;;5056191;28;20385;-70
2020/12/26 05:55:37;;;;;;;9.65;3.05;;;;;;;;;;5056386;28;20063;-70
2020/12/26 05:58:03;;;;;;;7.70;3.20;;;;;;;;;;5056444;28;20483;-70
2020/12/26 06:00:35;;;;;;;9.02;3.65;;;;;;;;;;5056404;28;20032;-70
2020/12/26 06:03:19;;;;;;;11.13;3.63;;;;;;;;;;5055722;28;20029;-70
2020/12/26 06:05:46;;;;;;;7.85;4.13;;;;;;;;;;5056289;28;20059;-69
2020/12/26 06:08:12;;;;;;;9.77;4.97;;;;;;;;;;5055628;28;20523;-72
2020/12/26 06:10:38;;;;;;;15.05;4.70;;;;;;;;;;5056043;28;20475;-70
2020/12/26 06:13:03;;;;;;;8.43;4.47;;;;;;;;;;5056040;28;20037;-70
2020/12/26 06:15:28;;;;;;;10.93;4.70;;;;;;;;;;5056111;28;20036;-70
2020/12/26 06:17:55;;;;;;;8.82;4.07;;;;;;;;;;5055899;28;20017;-70
2020/12/26 06:20:21;;;;;;;7.15;4.25;;;;;;;;;;5056134;28;20033;-70
2020/12/26 06:22:46;;;;;;;8.20;3.22;;;;;;;;;;5055596;28;20488;-70
2020/12/26 06:25:13;;;;;;;8.05;3.65;;;;;;;;;;5055859;28;20110;-70
2020/12/26 06:27:50;;;;;;;6.90;3.95;;;;;;;;;;5056135;28;20098;-70
2020/12/26 06:30:16;;;;;;;6.43;3.20;;;;;;;;;;5055515;28;20651;-70
2020/12/26 06:32:41;;;;;;;6.07;2.88;;;;;;;;;;5055536;28;20120;-71
2020/12/26 06:35:06;;;;;;;5.30;2.97;;;;;;;;;;5055422;28;20043;-72
2020/12/26 06:37:32;;;;;;;8.70;3.38;;;;;;;;;;5055548;28;20105;-71
2020/12/26 06:39:57;;;;;;;6.50;3.20;;;;;;;;;;5055703;28;20075;-70
2020/12/26 06:42:23;;;;;;;6.30;2.95;;;;;;;;;;5039736;28;20498;-70
2020/12/26 06:44:49;;;;;;;8.95;3.72;;;;;;;;;;5035610;28;20033;-70
2020/12/26 06:47:33;;;;;;;12.10;4.20;;;;;;;;;;5035668;28;20136;-70
2020/12/26 06:50:15;;;;;;;8.80;3.47;;;;;;;;;;5035088;28;20056;-70
2020/12/26 06:52:40;;;;;;;8.65;3.95;;;;;;;;;;5035074;28;20473;-70
2020/12/26 06:55:06;;;;;;;10.73;3.92;;;;;;;;;;5035419;28;20095;-70
2020/12/26 06:57:40;;;;;;;10.18;4.32;;;;;;;;;;5035372;28;20018;-70
2020/12/26 07:00:25;;;;;;;9.07;4.35;;;;;;;;;;5035059;28;20478;-70
2020/12/26 07:03:10;;;;;;;8.77;4.23;;;;;;;;;;5034929;28;20041;-70
2020/12/26 07:05:36;;;;;;;9.00;4.23;;;;;;;;;;5034842;28;20072;-69
2020/12/26 07:08:01;;;;;;;9.18;3.80;;;;;;;;;;5035142;28;20283;-70
2020/12/26 07:10:36;;;;;;;8.98;4.32;;;;;;;;;;5035117;28;20056;-70
2020/12/26 07:13:01;;;;;;;9.82;4.55;;;;;;;;;;5034722;28;20026;-70
2020/12/26 07:15:32;;;;;;;8.75;4.10;;;;;;;;;;5035338;28;20566;-70
2020/12/26 07:18:16;;;;;;;10.30;4.40;;;;;;;;;;5034784;28;20381;-70
2020/12/26 07:20:47;;;;;;;12.85;5.60;;;;;;;;;;5034774;28;20116;-70
2020/12/26 07:23:12;;;;;;;26.05;10.10;;;;;;;;;;5034658;28;20041;-70
2020/12/26 07:25:38;;;;;;;34.65;15.55;;;;;;;;;;5034435;28;20018;-70
2020/12/26 07:28:03;;;;;;;39.95;15.32;;;;;;;;;;5034465;28;20036;-70
2020/12/26 07:30:33;;;;;;;21.58;10.73;;;;;;;;;;5034517;28;20044;-70
2020/12/26 07:32:58;;;;;;;19.65;8.55;;;;;;;;;;5034628;28;20049;-70
2020/12/26 07:35:25;;;;;;;11.82;5.07;;;;;;;;;;5034149;28;20075;-69
2020/12/26 07:37:53;;;;;;;14.07;5.68;;;;;;;;;;5034514;28;20041;-70
2020/12/26 07:40:19;;;;;;;14.15;5.88;;;;;;;;;;5034385;28;20021;-69
2020/12/26 07:42:45;;;;;;;11.10;4.38;;;;;;;;;;5052893;28;20037;-70
2020/12/26 07:45:11;;;;;;;11.05;4.43;;;;;;;;;;5054354;28;20238;-71
2020/12/26 07:47:42;;;;;;;12.10;5.18;;;;;;;;;;5054285;28;20366;-71
2020/12/26 07:50:08;;;;;;;14.45;5.50;;;;;;;;;;5054038;28;20044;-70
2020/12/26 07:52:34;;;;;;;13.88;5.03;;;;;;;;;;5054128;28;20037;-71
2020/12/26 07:54:59;;;;;;;9.68;4.25;;;;;;;;;;5054515;28;20013;-70
2020/12/26 07:57:25;;;;;;;11.07;4.03;;;;;;;;;;5048394;28;20029;-70
2020/12/26 07:59:50;;;;;;;15.32;3.95;;;;;;;;;;5033849;28;20083;-70
2020/12/26 08:02:16;;;;;;;10.77;4.78;;;;;;;;;;5034156;28;20470;-70
2020/12/26 08:04:45;;;;;;;12.85;4.53;;;;;;;;;;5033831;28;20076;-70
2020/12/26 08:07:11;;;;;;;14.23;4.50;;;;;;;;;;5033312;28;20457;-70
2020/12/26 08:09:36;;;;;;;17.85;5.13;;;;;;;;;;5033547;28;20041;-70
2020/12/26 08:12:05;;;;;;;24.77;5.65;;;;;;;;;;5039107;28;20047;-71
2020/12/26 08:14:30;;;;;;;17.35;4.90;;;;;;;;;;5043642;28;20104;-71
2020/12/26 08:16:56;;;;;;;19.73;6.07;;;;;;;;;;5043920;28;20104;-70
2020/12/26 08:19:21;;;;;;;22.40;5.68;;;;;;;;;;5041985;28;20393;-71
2020/12/26 08:21:47;;;;;;;23.42;7.75;;;;;;;;;;5043713;28;20028;-71
2020/12/26 08:24:12;;;;;;;17.02;6.43;;;;;;;;;;5051992;28;20029;-70
2020/12/26 08:26:38;;;;;;;19.17;6.75;;;;;;;;;;5053533;28;20053;-70
2020/12/26 08:29:04;;;;;;;23.38;7.68;;;;;;;;;;5053345;28;20032;-70
2020/12/26 08:31:30;;;;;;;19.33;7.97;;;;;;;;;;5050325;28;20028;-70
2020/12/26 08:34:19;;;;;;;37.00;10.65;;;;;;;;;;5052743;28;20173;-70
2020/12/26 08:36:47;;;;;;;26.42;8.48;;;;;;;;;;5053417;28;20037;-70
2020/12/26 08:39:16;;;;;;;18.17;7.18;;;;;;;;;;5053108;28;20029;-70
2020/12/26 08:41:42;;;;;;;21.27;8.65;;;;;;;;;;5043119;28;20033;-70
2020/12/26 08:44:08;;;;;;;19.45;7.60;;;;;;;;;;5033453;28;20029;-70
2020/12/26 08:46:41;;;;;;;13.65;5.88;;;;;;;;;;5033209;28;20378;-70
2020/12/26 08:49:06;;;;;;;17.50;7.10;;;;;;;;;;5031802;28;20036;-72
2020/12/26 08:51:31;;;;;;;12.82;4.90;;;;;;;;;;5031980;28;20034;-71
2020/12/26 08:53:56;;;;;;;15.13;5.07;;;;;;;;;;5017750;28;20025;-70
2020/12/26 08:56:37;;;;;;;11.95;4.75;;;;;;;;;;5034668;28;20025;-70
2020/12/26 08:59:03;;;;;;;10.88;5.05;;;;;;;;;;5029180;28;20041;-73
2020/12/26 09:01:28;;;;;;;7.22;4.30;;;;;;;;;;5031465;28;20045;-70
2020/12/26 09:03:56;;;;;;;10.43;5.00;;;;;;;;;;5043475;28;20671;-72
2020/12/26 09:06:32;;;;;;;8.45;4.47;;;;;;;;;;5030589;28;20029;-71
2020/12/26 09:08:57;;;;;;;9.60;3.88;;;;;;;;;;5026963;28;20042;-75
2020/12/26 09:11:30;;;;;;;9.55;3.83;;;;;;;;;;5036938;28;20052;-74
2020/12/26 09:13:55;;;;;;;10.90;3.58;;;;;;;;;;5040920;28;20061;-73
2020/12/26 09:16:20;;;;;;;9.57;3.63;;;;;;;;;;5038794;28;20060;-71
2020/12/26 09:18:49;;;;;;;6.25;3.08;;;;;;;;;;5028237;28;20037;-72
2020/12/26 09:21:27;;;;;;;8.65;3.17;;;;;;;;;;5040822;28;20091;-71
2020/12/26 09:23:54;;;;;;;5.65;3.38;;;;;;;;;;5030071;28;20036;-74
2020/12/26 09:26:21;;;;;;;13.18;4.30;;;;;;;;;;5041389;28;20567;-72
2020/12/26 09:28:52;;;;;;;6.25;3.05;;;;;;;;;;5028948;28;20083;-71
2020/12/26 09:31:28;;;;;;;7.63;3.30;;;;;;;;;;5031938;28;20037;-72
2020/12/26 09:33:54;;;;;;;4.50;2.38;;;;;;;;;;5029444;28;20057;-72
2020/12/26 09:36:20;;;;;;;4.15;2.80;;;;;;;;;;5037605;28;20033;-73
2020/12/26 09:38:46;;;;;;;12.63;3.47;;;;;;;;;;5037682;28;20038;-72
2020/12/26 09:41:12;;;;;;;9.13;4.63;;;;;;;;;;5035918;28;20076;-71
2020/12/26 09:43:37;;;;;;;9.30;3.67;;;;;;;;;;5034642;28;20026;-72
2020/12/26 09:46:02;;;;;;;7.90;3.78;;;;;;;;;;5043156;28;20744;-71
2020/12/26 09:48:28;;;;;;;11.40;5.15;;;;;;;;;;5033924;28;20442;-73
2020/12/26 09:50:53;;;;;;;25.88;10.70;;;;;;;;;;5034953;28;20044;-76
2020/12/26 09:53:18;;;;;;;504.10;218.85;;;;;;;;;;5034206;28;20029;-72
2020/12/26 09:55:43;;;;;;;29.88;12.75;;;;;;;;;;5042783;28;20028;-72
2020/12/26 09:58:09;;;;;;;18.98;9.95;;;;;;;;;;5027047;28;20053;-70
2020/12/26 10:00:34;;;;;;;15.35;8.23;;;;;;;;;;5034390;28;20535;-75
2020/12/26 10:02:59;;;;;;;12.50;7.03;;;;;;;;;;5035316;28;20053;-71
2020/12/26 10:05:24;;;;;;;12.30;7.35;;;;;;;;;;5037636;28;20032;-72
2020/12/26 10:07:50;;;;;;;7.22;3.20;;;;;;;;;;5029492;28;20132;-75
2020/12/26 10:10:15;;;;;;;5.55;2.10;;;;;;;;;;5031704;28;20029;-75
2020/12/26 10:12:40;;;;;;;6.30;2.63;;;;;;;;;;5040384;28;20029;-72
2020/12/26 10:15:06;;;;;;;3.60;1.75;;;;;;;;;;5039408;28;20056;-70
2020/12/26 10:17:31;;;;;;;8.77;2.35;;;;;;;;;;5045341;28;20036;-72
2020/12/26 10:19:56;;;;;;;9.55;2.95;;;;;;;;;;5033766;28;20040;-72
2020/12/26 10:22:21;;;;;;;10.25;1.73;;;;;;;;;;5036797;28;20047;-72
2020/12/26 10:24:47;;;;;;;5.00;2.33;;;;;;;;;;5038622;28;20021;-71
2020/12/26 10:27:12;;;;;;;4.10;2.10;;;;;;;;;;5043377;28;20063;-70
2020/12/26 10:29:37;;;;;;;6.28;2.00;;;;;;;;;;5036502;28;20030;-74
2020/12/26 10:32:03;;;;;;;7.88;2.67;;;;;;;;;;5031046;28;20076;-70
2020/12/26 10:34:28;;;;;;;5.90;1.70;;;;;;;;;;5030620;28;20029;-71
2020/12/26 10:36:54;;;;;;;4.05;1.73;;;;;;;;;;5040000;28;20033;-71
2020/12/26 10:39:19;;;;;;;7.93;2.47;;;;;;;;;;5040175;28;20100;-71
2020/12/26 10:41:44;;;;;;;6.60;1.73;;;;;;;;;;5037077;28;20049;-73
2020/12/26 10:44:10;;;;;;;6.70;1.90;;;;;;;;;;5043516;28;20414;-70
2020/12/26 10:46:35;;;;;;;7.63;1.52;;;;;;;;;;5043641;28;20021;-70
2020/12/26 10:49:00;;;;;;;6.20;1.52;;;;;;;;;;5038882;28;20029;-73
2020/12/26 10:51:25;;;;;;;8.27;2.53;;;;;;;;;;5038819;28;20037;-71
2020/12/26 10:53:51;;;;;;;4.72;1.60;;;;;;;;;;5043575;28;20526;-70
2020/12/26 10:56:16;;;;;;;6.88;2.00;;;;;;;;;;5037601;28;20025;-74
2020/12/26 10:58:41;;;;;;;5.45;2.78;;;;;;;;;;5036365;28;20085;-72
2020/12/26 11:01:07;;;;;;;8.02;2.88;;;;;;;;;;5032026;28;20120;-71
2020/12/26 11:03:32;;;;;;;12.65;5.80;;;;;;;;;;5034314;28;20049;-72
2020/12/26 11:05:59;;;;;;;12.55;5.53;;;;;;;;;;5034084;28;20048;-76
2020/12/26 11:08:24;;;;;;;25.13;12.82;;;;;;;;;;5036627;28;20013;-71
2020/12/26 11:10:50;;;;;;;15.48;7.50;;;;;;;;;;5039782;28;20456;-70
2020/12/26 11:13:15;;;;;;;13.48;5.97;;;;;;;;;;5041852;28;20048;-71
2020/12/26 11:15:40;;;;;;;20.58;9.98;;;;;;;;;;5036582;28;20552;-73
2020/12/26 11:18:06;;;;;;;4.93;2.30;;;;;;;;;;5038203;28;20020;-70
2020/12/26 11:20:31;;;;;;;4.68;1.83;;;;;;;;;;5044018;28;20035;-73
2020/12/26 11:22:56;;;;;;;11.00;2.90;;;;;;;;;;5041339;28;20025;-74
2020/12/26 11:25:22;;;;;;;5.80;1.60;;;;;;;;;;5039970;28;20048;-72
2020/12/26 11:27:47;;;;;;;4.57;1.13;;;;;;;;;;5041966;28;20033;-71
2020/12/26 11:30:12;;;;;;;3.90;1.10;;;;;;;;;;5042232;28;20641;-73
2020/12/26 11:32:38;;;;;;;6.05;1.65;;;;;;;;;;5040631;28;20051;-71
2020/12/26 11:35:03;;;;;;;4.25;1.17;;;;;;;;;;5040195;28;20091;-71
2020/12/26 11:37:30;;;;;;;4.57;1.70;;;;;;;;;;5043805;28;20063;-74
2020/12/26 11:39:55;;;;;;;4.68;1.27;;;;;;;;;;5047996;28;20037;-71
2020/12/26 11:42:20;;;;;;;4.97;1.45;;;;;;;;;;5048521;28;20063;-71
2020/12/26 11:44:46;;;;;;;7.35;1.92;;;;;;;;;;5039339;28;20025;-72
2020/12/26 11:47:11;;;;;;;14.63;6.78;;;;;;;;;;5041530;28;20029;-70
2020/12/26 11:49:36;;;;;;;5.35;1.65;;;;;;;;;;5032977;28;20116;-73
2020/12/26 11:52:01;;;;;;;5.07;2.00;;;;;;;;;;5047790;28;20041;-71
2020/12/26 11:54:27;;;;;;;8.65;2.63;;;;;;;;;;5042539;28;20055;-70
2020/12/26 11:56:52;;;;;;;18.88;9.77;;;;;;;;;;5053465;28;20037;-69
2020/12/26 11:59:18;;;;;;;8.90;2.85;;;;;;;;;;5037692;28;20097;-69
2020/12/26 12:01:43;;;;;;;8.50;3.53;;;;;;;;;;5022829;28;20056;-70
2020/12/26 12:04:09;;;;;;;6.95;2.63;;;;;;;;;;5040513;28;20068;-70
2020/12/26 12:06:34;;;;;;;6.70;2.10;;;;;;;;;;5034740;28;20029;-70
2020/12/26 12:08:59;;;;;;;4.25;1.50;;;;;;;;;;5031090;28;20040;-71
2020/12/26 12:11:25;;;;;;;8.98;1.45;;;;;;;;;;5019362;28;20045;-72
2020/12/26 12:13:50;;;;;;;7.35;2.08;;;;;;;;;;5031099;28;20024;-74
2020/12/26 12:16:15;;;;;;;10.10;1.52;;;;;;;;;;5030452;28;20038;-71
2020/12/26 12:18:40;;;;;;;5.50;1.17;;;;;;;;;;5024909;28;20474;-71
2020/12/26 12:21:06;;;;;;;8.85;1.35;;;;;;;;;;5030248;28;20574;-71
2020/12/26 12:23:31;;;;;;;5.20;1.40;;;;;;;;;;5034211;28;20032;-71
2020/12/26 12:25:57;;;;;;;3.13;1.10;;;;;;;;;;5036061;28;20047;-72
2020/12/26 12:28:22;;;;;;;3.65;1.50;;;;;;;;;;5035461;28;20048;-73
2020/12/26 12:30:47;;;;;;;4.28;1.17;;;;;;;;;;5034687;28;20041;-73
2020/12/26 12:33:13;;;;;;;5.55;1.15;;;;;;;;;;5034372;28;20049;-70
2020/12/26 12:35:38;;;;;;;4.40;1.05;;;;;;;;;;5031430;28;20036;-73
2020/12/26 12:38:03;;;;;;;5.28;1.00;;;;;;;;;;5036177;28;20021;-74
2020/12/26 12:40:29;;;;;;;5.95;1.92;;;;;;;;;;5035072;28;20056;-71
2020/12/26 12:42:54;;;;;;;4.78;1.15;;;;;;;;;;5041172;28;20029;-75
2020/12/26 12:45:19;;;;;;;1.80;0.60;;;;;;;;;;5028966;28;20760;-71
2020/12/26 12:47:44;;;;;;;3.03;0.93;;;;;;;;;;5037103;28;20030;-73
2020/12/26 12:50:10;;;;;;;4.03;1.17;;;;;;;;;;5035499;28;20421;-71
2020/12/26 12:52:35;;;;;;;4.15;1.00;;;;;;;;;;5030004;28;20620;-73
2020/12/26 12:55:01;;;;;;;4.85;1.67;;;;;;;;;;5040293;28;20041;-73
2020/12/26 12:57:26;;;;;;;5.15;1.85;;;;;;;;;;5029817;28;20784;-74
2020/12/26 12:59:51;;;;;;;6.03;2.30;;;;;;;;;;5036110;28;20044;-74
2020/12/26 13:02:17;;;;;;;6.30;2.97;;;;;;;;;;5036514;28;20127;-71
2020/12/26 13:04:42;;;;;;;5.95;1.65;;;;;;;;;;5028589;28;20028;-72
2020/12/26 13:07:07;;;;;;;2.92;1.40;;;;;;;;;;5031884;28;20044;-73
2020/12/26 13:09:32;;;;;;;6.97;1.42;;;;;;;;;;5037049;28;20038;-72
2020/12/26 13:11:58;;;;;;;7.90;1.70;;;;;;;;;;5029242;28;20120;-71
2020/12/26 13:14:23;;;;;;;4.47;1.90;;;;;;;;;;5019660;28;20652;-74
2020/12/26 13:16:49;;;;;;;2.78;1.45;;;;;;;;;;5020372;28;20048;-70
2020/12/26 13:19:14;;;;;;;4.88;1.67;;;;;;;;;;5019040;28;21704;-72
2020/12/26 13:21:39;;;;;;;4.57;1.30;;;;;;;;;;5025700;28;20024;-73
2020/12/26 13:24:05;;;;;;;5.50;1.27;;;;;;;;;;5016414;28;20037;-71
2020/12/26 13:26:30;;;;;;;4.13;1.30;;;;;;;;;;5024775;28;20446;-72
2020/12/26 13:28:55;;;;;;;14.82;2.50;;;;;;;;;;5020150;28;20025;-72
2020/12/26 13:31:27;;;;;;;6.70;1.77;;;;;;;;;;5023788;28;20045;-73
2020/12/26 13:33:53;;;;;;;6.93;2.05;;;;;;;;;;5024396;28;20051;-75
2020/12/26 13:36:18;;;;;;;4.70;1.80;;;;;;;;;;5018246;28;20541;-72
2020/12/26 13:38:44;;;;;;;4.43;1.27;;;;;;;;;;5019844;28;21644;-75
2020/12/26 13:41:09;;;;;;;7.47;2.05;;;;;;;;;;5032606;28;20458;-72
2020/12/26 13:43:34;;;;;;;6.13;1.58;;;;;;;;;;5034463;28;20713;-80
2020/12/26 13:46:00;;;;;;;7.05;0.93;;;;;;;;;;5019163;28;20119;-71
2020/12/26 13:48:25;;;;;;;6.10;1.40;;;;;;;;;;5030286;28;20025;-72
2020/12/26 13:50:50;;;;;;;8.07;1.17;;;;;;;;;;5022628;28;20045;-73
2020/12/26 13:53:15;;;;;;;5.88;1.10;;;;;;;;;;5029977;28;20512;-70
2020/12/26 13:55:41;;;;;;;2.50;1.00;;;;;;;;;;5023823;28;20052;-72
2020/12/26 13:58:06;;;;;;;15.20;5.53;;;;;;;;;;5033808;28;20055;-71
2020/12/26 14:00:32;;;;;;;10.27;2.70;;;;;;;;;;5033071;28;20040;-71
2020/12/26 14:02:57;;;;;;;6.95;1.88;;;;;;;;;;5034510;28;20029;-72
2020/12/26 14:05:22;;;;;;;6.45;2.90;;;;;;;;;;5038656;28;21700;-74
2020/12/26 14:07:47;;;;;;;7.68;1.30;;;;;;;;;;5033420;28;20025;-70
2020/12/26 14:10:13;;;;;;;9.73;2.67;;;;;;;;;;5034754;28;20412;-70
2020/12/26 14:12:38;;;;;;;5.10;1.20;;;;;;;;;;5035852;28;20064;-69
2020/12/26 14:15:04;;;;;;;2.92;0.88;;;;;;;;;;5039538;28;20036;-71
2020/12/26 14:17:29;;;;;;;5.57;1.40;;;;;;;;;;5053627;28;20051;-70
2020/12/26 14:19:55;;;;;;;6.95;2.22;;;;;;;;;;5031485;28;20040;-70
2020/12/26 14:22:20;;;;;;;5.00;1.10;;;;;;;;;;5035819;28;20482;-70
2020/12/26 14:24:45;;;;;;;3.47;1.33;;;;;;;;;;5034736;28;20075;-70
2020/12/26 14:27:10;;;;;;;7.50;1.52;;;;;;;;;;5035092;28;20033;-72